createdAt,value
2022-10-12T00:01:08.098Z,5.63
2022-10-12T00:03:36.825Z,5.88
2022-10-12T00:06:09.461Z,3.92
2022-10-12T00:08:38.995Z,5.38
2022-10-12T00:11:09.849Z,4.80
2022-10-12T00:13:38.405Z,3.60
2022-10-12T00:16:11.667Z,4.38
2022-10-12T00:18:40.572Z,4.22
2022-10-12T00:21:12.577Z,4.55
2022-10-12T00:23:42.071Z,4.05
2022-10-12T00:26:13.805Z,4.72
2022-10-12T00:28:42.474Z,4.70
2022-10-12T00:31:15.706Z,5.18
2022-10-12T00:33:44.595Z,5.60
2022-10-12T00:36:21.701Z,4.32
2022-10-12T00:38:53.082Z,4.88
2022-10-12T00:41:24.119Z,3.90
2022-10-12T00:43:58.256Z,5.07
2022-10-12T00:46:37.237Z,4.70
2022-10-12T00:49:13.741Z,3.72
2022-10-12T00:51:45.413Z,4.10
2022-10-12T00:54:19.530Z,3.97
2022-10-12T00:56:50.137Z,4.68
2022-10-12T00:59:24.773Z,4.65
2022-10-12T01:01:54.664Z,4.53
2022-10-12T01:04:24.185Z,5.28
2022-10-12T01:06:54.112Z,4.65
2022-10-12T01:09:23.149Z,6.05
2022-10-12T01:11:51.593Z,5.35
2022-10-12T01:14:20.128Z,5.43
2022-10-12T01:16:56.712Z,5.57
2022-10-12T01:19:59.429Z,4.68
2022-10-12T01:22:31.648Z,4.63
2022-10-12T01:25:14.059Z,3.92
2022-10-12T01:27:48.859Z,4.13
2022-10-12T01:30:23.167Z,3.97
2022-10-12T01:33:12.279Z,4.30
2022-10-12T01:35:50.176Z,4.75
2022-10-12T01:38:39.558Z,4.03
2022-10-12T01:41:16.904Z,4.63
2022-10-12T01:43:47.087Z,4.63
2022-10-12T01:46:41.558Z,3.92
2022-10-12T01:49:10.896Z,3.45
2022-10-12T01:52:15.918Z,4.75
2022-10-12T01:55:02.302Z,5.65
2022-10-12T01:57:41.304Z,4.95
2022-10-12T02:00:13.421Z,4.43
2022-10-12T02:02:56.426Z,4.63
2022-10-12T02:05:34.602Z,4.35
2022-10-12T02:08:10.928Z,6.03
2022-10-12T02:10:45.509Z,6.32
2022-10-12T02:13:16.887Z,4.55
2022-10-12T02:15:45.995Z,3.78
2022-10-12T02:18:20.404Z,4.43
2022-10-12T02:20:52.644Z,4.95
2022-10-12T02:23:24.996Z,4.10
2022-10-12T02:25:54.653Z,4.68
2022-10-12T02:28:27.548Z,4.00
2022-10-12T02:31:02.780Z,4.25
2022-10-12T02:33:39.131Z,4.10
2022-10-12T02:36:14.977Z,4.85
2022-10-12T02:38:50.239Z,4.28
2022-10-12T02:41:26.276Z,4.47
2022-10-12T02:44:00.031Z,4.45
2022-10-12T02:46:30.410Z,4.38
2022-10-12T02:49:01.833Z,5.53
2022-10-12T02:51:31.133Z,3.67
2022-10-12T02:53:59.831Z,4.68
2022-10-12T02:56:28.295Z,3.72
2022-10-12T02:58:56.684Z,4.88
2022-10-12T03:01:25.153Z,5.10
2022-10-12T03:03:53.611Z,4.65
2022-10-12T03:06:23.954Z,4.57
2022-10-12T03:08:52.474Z,4.57
2022-10-12T03:11:20.798Z,3.88
2022-10-12T03:13:49.137Z,4.72
2022-10-12T03:16:17.490Z,4.75
2022-10-12T03:18:45.906Z,4.72
2022-10-12T03:21:14.428Z,3.63
2022-10-12T03:23:44.185Z,5.00
2022-10-12T03:26:12.602Z,4.43
2022-10-12T03:28:41.004Z,3.60
2022-10-12T03:31:09.423Z,3.08
2022-10-12T03:33:37.775Z,3.65
2022-10-12T03:36:06.924Z,5.00
2022-10-12T03:38:35.260Z,3.97
2022-10-12T03:41:06.836Z,4.07
2022-10-12T03:43:36.702Z,3.75
2022-10-12T03:46:05.153Z,3.72
2022-10-12T03:48:33.663Z,4.60
2022-10-12T03:51:02.049Z,4.50
2022-10-12T03:53:31.579Z,3.63
2022-10-12T03:56:01.137Z,4.38
2022-10-12T03:58:30.955Z,4.50
2022-10-12T04:00:59.325Z,4.07
2022-10-12T04:03:27.712Z,5.07
2022-10-12T04:05:56.727Z,3.55
2022-10-12T04:08:26.831Z,4.32
2022-10-12T04:10:55.484Z,4.20
2022-10-12T04:13:24.119Z,3.78
2022-10-12T04:15:53.854Z,3.60
2022-10-12T04:18:22.242Z,3.65
2022-10-12T04:20:51.046Z,2.70
2022-10-12T04:23:19.414Z,4.35
2022-10-12T04:25:48.138Z,3.83
2022-10-12T04:28:16.557Z,4.28
2022-10-12T04:30:46.222Z,3.30
2022-10-12T04:33:16.056Z,3.40
2022-10-12T04:35:44.384Z,4.88
2022-10-12T04:38:14.062Z,3.67
2022-10-12T04:40:42.389Z,4.03
2022-10-12T04:43:10.892Z,4.07
2022-10-12T04:45:39.233Z,3.88
2022-10-12T04:48:07.719Z,3.60
2022-10-12T04:50:37.730Z,3.92
2022-10-12T04:53:06.156Z,4.57
2022-10-12T04:55:34.511Z,4.10
2022-10-12T04:58:02.879Z,4.90
2022-10-12T05:00:31.523Z,4.25
2022-10-12T05:02:59.969Z,3.08
2022-10-12T05:05:28.390Z,4.20
2022-10-12T05:07:58.137Z,4.68
2022-10-12T05:10:26.645Z,3.58
2022-10-12T05:12:55.070Z,3.92
2022-10-12T05:15:23.467Z,4.22
2022-10-12T05:17:51.831Z,3.15
2022-10-12T05:20:20.196Z,3.67
2022-10-12T05:22:48.750Z,3.63
2022-10-12T05:25:19.472Z,3.90
2022-10-12T05:27:47.832Z,5.53
2022-10-12T05:30:16.463Z,4.80
2022-10-12T05:32:44.920Z,4.28
2022-10-12T05:35:13.345Z,5.22
2022-10-12T05:37:41.722Z,4.38
2022-10-12T05:40:11.323Z,4.13
2022-10-12T05:42:41.379Z,3.47
2022-10-12T05:45:11.392Z,4.78
2022-10-12T05:47:40.972Z,4.07
2022-10-12T05:50:10.521Z,3.38
2022-10-12T05:52:39.419Z,3.80
2022-10-12T05:55:09.704Z,3.40
2022-10-12T05:57:38.292Z,3.60
2022-10-12T06:00:10.663Z,3.78
2022-10-12T06:02:39.531Z,3.20
2022-10-12T06:05:09.133Z,2.95
2022-10-12T06:07:37.552Z,3.17
2022-10-12T06:10:07.484Z,4.32
2022-10-12T06:12:36.146Z,3.75
2022-10-12T06:15:05.195Z,3.63
2022-10-12T06:17:35.626Z,3.67
2022-10-12T06:20:04.092Z,2.90
2022-10-12T06:22:32.487Z,3.08
2022-10-12T06:25:00.927Z,3.47
2022-10-12T06:27:29.305Z,2.97
2022-10-12T06:29:57.707Z,2.42
2022-10-12T06:32:26.141Z,3.80
2022-10-12T06:34:55.865Z,2.80
2022-10-12T06:37:48.396Z,2.85
2022-10-12T06:40:13.897Z,3.20
2022-10-12T06:42:42.238Z,3.58
2022-10-12T06:45:12.438Z,2.60
2022-10-12T06:47:40.858Z,3.28
2022-10-12T06:50:11.765Z,3.17
2022-10-12T06:52:40.697Z,3.85
2022-10-12T06:55:10.586Z,3.13
2022-10-12T06:57:39.032Z,3.97
2022-10-12T07:00:09.971Z,3.72
2022-10-12T07:02:38.625Z,2.47
2022-10-12T07:05:10.352Z,2.92
2022-10-12T07:07:39.347Z,3.28
2022-10-12T07:10:08.855Z,2.80
2022-10-12T07:12:38.443Z,3.58
2022-10-12T07:15:09.304Z,2.72
2022-10-12T07:17:38.361Z,2.95
2022-10-12T07:20:08.596Z,3.20
2022-10-12T07:22:38.492Z,3.50
2022-10-12T07:25:08.469Z,2.80
2022-10-12T07:27:37.156Z,3.22
2022-10-12T07:30:07.238Z,2.88
2022-10-12T07:32:35.693Z,4.30
2022-10-12T07:35:04.241Z,1.98
2022-10-12T07:37:32.762Z,2.35
2022-10-12T07:40:02.525Z,3.10
2022-10-12T07:42:30.940Z,3.15
2022-10-12T07:44:59.375Z,4.28
2022-10-12T07:47:27.762Z,2.97
2022-10-12T07:49:56.186Z,3.97
2022-10-12T07:52:27.379Z,3.90
2022-10-12T07:54:55.825Z,2.60
2022-10-12T07:57:25.592Z,3.97
2022-10-12T07:59:54.054Z,2.35
2022-10-12T08:02:22.491Z,3.30
2022-10-12T08:04:50.885Z,2.83
2022-10-12T08:07:19.382Z,2.70
2022-10-12T08:09:49.736Z,2.42
2022-10-12T08:12:18.122Z,3.22
2022-10-12T08:14:48.118Z,3.15
2022-10-12T08:17:16.700Z,2.40
2022-10-12T08:19:45.085Z,4.20
2022-10-12T08:22:13.470Z,3.63
2022-10-12T08:24:42.312Z,3.42
2022-10-12T08:27:10.694Z,5.05
2022-10-12T08:29:39.710Z,4.30
2022-10-12T08:32:09.681Z,2.42
2022-10-12T08:34:38.109Z,4.28
2022-10-12T08:37:06.633Z,3.20
2022-10-12T08:39:35.088Z,2.83
2022-10-12T08:42:24.485Z,2.88
2022-10-12T08:45:14.614Z,3.05
2022-10-12T08:47:47.567Z,2.55
2022-10-12T08:50:25.249Z,3.17
2022-10-12T08:52:57.993Z,2.65
2022-10-12T08:55:37.011Z,3.75
2022-10-12T08:58:11.421Z,3.40
2022-10-12T09:00:40.933Z,3.70
2022-10-12T09:03:24.815Z,3.65
2022-10-12T09:06:01.215Z,2.72
2022-10-12T09:08:44.796Z,3.15
2022-10-12T09:11:34.516Z,2.80
2022-10-12T09:14:09.509Z,3.80
2022-10-12T09:16:43.462Z,2.63
2022-10-12T09:19:20.310Z,3.35
2022-10-12T09:21:50.843Z,4.38
2022-10-12T09:24:23.768Z,2.85
2022-10-12T09:26:58.132Z,2.75
2022-10-12T09:29:29.802Z,2.63
2022-10-12T09:32:31.815Z,3.92
2022-10-12T09:35:02.052Z,3.20
2022-10-12T09:37:33.655Z,3.53
2022-10-12T09:40:02.275Z,2.63
2022-10-12T09:42:30.814Z,2.67
2022-10-12T09:45:04.159Z,2.65
2022-10-12T09:47:34.490Z,3.55
2022-10-12T09:50:08.019Z,4.15
2022-10-12T09:52:45.854Z,3.60
2022-10-12T09:58:00.007Z,3.97
2022-10-12T10:00:31.711Z,4.80
2022-10-12T10:03:01.699Z,3.17
2022-10-12T10:05:33.710Z,3.97
2022-10-12T10:08:20.318Z,3.30
2022-10-12T10:10:53.452Z,3.00
2022-10-12T10:13:23.836Z,6.78
2022-10-12T10:16:03.510Z,5.28
2022-10-12T10:18:37.747Z,3.83
2022-10-12T10:21:11.080Z,3.05
2022-10-12T10:23:44.586Z,3.25
2022-10-12T10:28:48.704Z,4.70
2022-10-12T10:31:23.357Z,3.20
2022-10-12T10:34:13.076Z,3.25
2022-10-12T10:36:48.600Z,3.92
2022-10-12T10:39:23.973Z,3.00
2022-10-12T10:41:53.418Z,3.60
2022-10-12T10:44:32.138Z,2.80
2022-10-12T10:47:09.100Z,3.22
2022-10-12T10:49:43.281Z,2.97
2022-10-12T10:52:25.040Z,3.20
2022-10-12T10:55:19.851Z,3.13
2022-10-12T10:57:58.543Z,3.53
2022-10-12T11:00:43.636Z,2.13
2022-10-12T11:05:59.216Z,3.70
2022-10-12T11:08:32.133Z,2.67
2022-10-12T11:11:05.354Z,2.83
2022-10-12T11:13:39.050Z,2.83
2022-10-12T11:16:21.703Z,2.70
2022-10-12T11:18:56.420Z,2.83
2022-10-12T11:21:32.001Z,3.13
2022-10-12T11:24:10.853Z,3.33
2022-10-12T11:26:46.261Z,2.97
2022-10-12T11:29:18.166Z,2.17
2022-10-12T11:31:54.943Z,3.72
2022-10-12T11:34:26.765Z,3.47
2022-10-12T11:37:18.182Z,2.83
2022-10-12T11:39:51.417Z,2.75
2022-10-12T11:42:31.964Z,2.53
2022-10-12T11:45:03.098Z,2.72
2022-10-12T11:47:41.782Z,2.58
2022-10-12T11:50:28.695Z,3.45
2022-10-12T11:52:59.186Z,2.92
2022-10-12T11:55:54.909Z,3.40
2022-10-12T11:58:42.046Z,2.55
2022-10-12T12:02:01.697Z,2.90
2022-10-12T12:04:42.753Z,2.92
2022-10-12T12:07:47.716Z,2.95
2022-10-12T12:11:08.142Z,3.05
2022-10-12T12:13:36.581Z,3.13
2022-10-12T12:16:33.906Z,3.17
2022-10-12T12:19:43.276Z,2.90
2022-10-12T12:22:30.890Z,2.80
2022-10-12T12:25:21.616Z,3.95
2022-10-12T12:27:55.945Z,5.40
2022-10-12T12:30:34.589Z,2.50
2022-10-12T12:33:07.246Z,2.97
2022-10-12T12:35:40.718Z,3.92
2022-10-12T12:38:21.154Z,2.20
2022-10-12T12:41:13.272Z,3.35
2022-10-12T12:44:05.443Z,2.35
2022-10-12T12:47:44.121Z,2.60
2022-10-12T12:50:32.718Z,3.30
2022-10-12T12:53:07.930Z,2.45
2022-10-12T12:56:03.724Z,2.45
2022-10-12T12:59:01.524Z,2.58
2022-10-12T13:02:03.101Z,2.70
2022-10-12T13:04:59.143Z,2.80
2022-10-12T13:07:58.164Z,3.75
2022-10-12T13:10:51.890Z,2.97
2022-10-12T13:13:57.817Z,3.78
2022-10-12T13:20:16.995Z,2.83
2022-10-12T13:22:47.866Z,2.58
2022-10-12T13:25:28.876Z,3.05
2022-10-12T13:27:57.992Z,3.22
2022-10-12T13:30:36.282Z,2.88
2022-10-12T13:33:21.925Z,2.70
2022-10-12T13:35:57.280Z,2.90
2022-10-12T13:38:28.455Z,3.35
2022-10-12T13:41:03.302Z,2.85
2022-10-12T13:43:41.657Z,3.03
2022-10-12T13:46:12.491Z,2.85
2022-10-12T13:48:59.337Z,2.88
2022-10-12T13:51:31.936Z,3.28
2022-10-12T13:54:00.389Z,3.53
2022-10-12T13:56:31.333Z,2.78
2022-10-12T13:59:06.705Z,4.07
2022-10-12T14:01:54.543Z,3.30
2022-10-12T14:04:28.896Z,3.22
2022-10-12T14:07:02.198Z,3.05
2022-10-12T14:09:42.987Z,3.58
2022-10-12T14:12:12.702Z,3.50
2022-10-12T14:14:44.361Z,3.53
2022-10-12T14:17:16.644Z,3.58
2022-10-12T14:19:49.785Z,3.40
2022-10-12T14:22:24.298Z,2.85
2022-10-12T14:25:07.267Z,3.45
2022-10-12T14:27:38.612Z,4.18
2022-10-12T14:30:17.954Z,3.42
2022-10-12T14:32:46.792Z,2.80
2022-10-12T14:35:25.881Z,2.92
2022-10-12T14:37:56.220Z,2.63
2022-10-12T14:40:35.875Z,3.63
2022-10-12T14:43:09.585Z,3.58
2022-10-12T14:45:38.418Z,3.70
2022-10-12T14:48:14.835Z,3.15
2022-10-12T14:50:45.264Z,3.33
2022-10-12T14:53:15.377Z,4.35
2022-10-12T14:55:44.955Z,3.88
2022-10-12T14:58:17.922Z,4.10
2022-10-12T15:00:46.909Z,2.80
2022-10-12T15:03:17.965Z,5.18
2022-10-12T15:05:47.769Z,4.03
2022-10-12T15:08:16.172Z,4.65
2022-10-12T15:10:44.747Z,3.45
2022-10-12T15:13:15.264Z,4.60
2022-10-12T15:15:47.983Z,3.45
2022-10-12T15:18:16.619Z,4.60
2022-10-12T15:20:49.320Z,3.20
2022-10-12T15:23:19.793Z,5.50
2022-10-12T15:25:53.063Z,3.67
2022-10-12T15:28:21.684Z,4.95
2022-10-12T15:33:39.956Z,4.53
2022-10-12T15:36:09.389Z,4.20
2022-10-12T15:38:39.214Z,4.05
2022-10-12T15:41:15.739Z,4.32
2022-10-12T15:43:44.132Z,4.85
2022-10-12T15:46:13.241Z,4.03
2022-10-12T15:48:41.874Z,4.43
2022-10-12T15:51:18.682Z,3.70
2022-10-12T15:53:48.482Z,4.97
2022-10-12T15:56:18.092Z,4.68
2022-10-12T15:58:47.088Z,4.43
2022-10-12T16:01:17.431Z,6.25
2022-10-12T16:03:46.977Z,4.68
2022-10-12T16:06:15.579Z,4.68
2022-10-12T16:08:44.411Z,4.70
2022-10-12T16:11:17.983Z,5.00
2022-10-12T16:13:52.665Z,5.78
2022-10-12T16:16:24.845Z,5.35
2022-10-12T16:18:54.296Z,4.22
2022-10-12T16:21:22.685Z,4.90
2022-10-12T16:23:51.164Z,4.15
2022-10-12T16:26:20.917Z,4.13
2022-10-12T16:28:49.449Z,3.80
2022-10-12T16:31:18.662Z,4.72
2022-10-12T16:33:47.214Z,4.72
2022-10-12T16:36:17.912Z,6.95
2022-10-12T16:38:46.862Z,4.45
2022-10-12T16:41:18.713Z,5.45
2022-10-12T16:43:48.748Z,4.57
2022-10-12T16:46:17.210Z,4.60
2022-10-12T16:48:45.567Z,5.35
2022-10-12T16:51:14.708Z,4.47
2022-10-12T16:53:44.003Z,5.38
2022-10-12T16:56:12.441Z,5.35
2022-10-12T16:58:40.849Z,5.10
2022-10-12T17:01:12.277Z,3.88
2022-10-12T17:03:41.257Z,4.20
2022-10-12T17:06:10.025Z,4.38
2022-10-12T17:08:39.581Z,5.22
2022-10-12T17:11:09.681Z,4.68
2022-10-12T17:13:39.697Z,5.60
2022-10-12T17:16:26.757Z,6.10
2022-10-12T17:18:59.382Z,5.88
2022-10-12T17:21:28.315Z,5.65
2022-10-12T17:24:00.190Z,5.93
2022-10-12T17:26:28.817Z,7.05
2022-10-12T17:28:57.885Z,5.93
2022-10-12T17:31:28.865Z,5.70
2022-10-12T17:33:59.322Z,6.80
2022-10-12T17:36:28.650Z,5.00
2022-10-12T17:38:59.780Z,5.75
2022-10-12T17:41:30.114Z,5.53
2022-10-12T17:43:59.224Z,4.63
2022-10-12T17:46:30.029Z,6.47
2022-10-12T17:48:59.543Z,6.53
2022-10-12T17:51:29.491Z,6.40
2022-10-12T17:53:58.503Z,7.15
2022-10-12T17:56:27.658Z,7.47
2022-10-12T17:58:58.459Z,6.55
2022-10-12T18:01:31.701Z,6.38
2022-10-12T18:04:02.458Z,5.80
2022-10-12T18:06:33.454Z,6.35
2022-10-12T18:09:04.641Z,8.00
2022-10-12T18:11:33.716Z,6.35
2022-10-12T18:14:03.361Z,5.72
2022-10-12T18:16:35.644Z,6.43
2022-10-12T18:19:06.357Z,6.15
2022-10-12T18:21:35.750Z,6.22
2022-10-12T18:24:10.244Z,7.85
2022-10-12T18:26:44.047Z,9.70
2022-10-12T18:29:15.993Z,8.05
2022-10-12T18:31:48.038Z,6.72
2022-10-12T18:34:17.612Z,6.10
2022-10-12T18:36:48.681Z,7.57
2022-10-12T18:39:18.648Z,6.78
2022-10-12T18:41:52.042Z,7.07
2022-10-12T18:44:23.107Z,6.72
2022-10-12T18:46:54.250Z,6.30
2022-10-12T18:49:23.378Z,6.63
2022-10-12T18:51:53.105Z,6.18
2022-10-12T18:54:23.467Z,7.72
2022-10-12T18:56:53.493Z,7.68
2022-10-12T18:59:23.448Z,7.25
2022-10-12T19:01:55.009Z,7.88
2022-10-12T19:04:25.276Z,6.55
2022-10-12T19:06:57.818Z,8.45
2022-10-12T19:09:27.687Z,6.35
2022-10-12T19:11:58.757Z,5.38
2022-10-12T19:14:28.344Z,5.82
2022-10-12T19:17:01.448Z,6.50
2022-10-12T19:19:32.296Z,6.65
2022-10-12T19:22:02.176Z,6.85
2022-10-12T19:24:32.379Z,6.15
2022-10-12T19:27:04.565Z,5.75
2022-10-12T19:29:35.376Z,5.32
2022-10-12T19:32:06.827Z,6.63
2022-10-12T19:34:36.459Z,5.30
2022-10-12T19:37:06.342Z,6.82
2022-10-12T19:39:36.654Z,6.22
2022-10-12T19:42:08.769Z,7.05
2022-10-12T19:44:37.815Z,6.22
2022-10-12T19:47:08.643Z,7.28
2022-10-12T19:49:45.194Z,7.55
2022-10-12T19:52:15.854Z,6.78
2022-10-12T19:54:46.872Z,6.38
2022-10-12T19:57:17.867Z,6.45
2022-10-12T19:59:48.080Z,8.25
2022-10-12T20:02:19.551Z,7.38
2022-10-12T20:04:54.385Z,7.18
2022-10-12T20:07:24.355Z,7.03
2022-10-12T20:09:54.503Z,6.93
2022-10-12T20:12:23.839Z,7.63
2022-10-12T20:14:53.849Z,6.80
2022-10-12T20:17:24.842Z,10.40
2022-10-12T20:19:54.041Z,8.13
2022-10-12T20:22:23.103Z,12.43
2022-10-12T20:24:51.881Z,7.53
2022-10-12T20:27:21.683Z,7.20
2022-10-12T20:29:50.100Z,9.68
2022-10-12T20:32:18.836Z,8.85
2022-10-12T20:34:52.266Z,8.18
2022-10-12T20:37:21.663Z,9.23
2022-10-12T20:39:53.589Z,8.00
2022-10-12T20:42:22.398Z,6.72
2022-10-12T20:44:51.670Z,8.02
2022-10-12T20:47:20.220Z,6.45
2022-10-12T20:49:50.122Z,8.07
2022-10-12T20:52:18.815Z,7.00
2022-10-12T20:54:47.424Z,8.40
2022-10-12T20:57:16.755Z,7.43
2022-10-12T20:59:45.742Z,5.72
2022-10-12T21:02:14.101Z,6.45
2022-10-12T21:04:42.564Z,6.40
2022-10-12T21:07:15.082Z,7.13
2022-10-12T21:09:43.736Z,6.47
2022-10-12T21:12:12.640Z,10.45
2022-10-12T21:14:40.990Z,8.52
2022-10-12T21:17:09.368Z,6.50
2022-10-12T21:19:37.724Z,6.82
2022-10-12T21:22:06.185Z,7.20
2022-10-12T21:24:35.951Z,5.38
2022-10-12T21:27:04.887Z,6.03
2022-10-12T21:29:33.229Z,6.10
2022-10-12T21:32:01.628Z,5.88
2022-10-12T21:34:29.976Z,5.47
2022-10-12T21:36:58.339Z,5.35
2022-10-12T21:39:26.947Z,4.57
2022-10-12T21:41:56.705Z,5.25
2022-10-12T21:44:25.040Z,5.25
2022-10-12T21:46:53.667Z,4.68
2022-10-12T21:49:22.044Z,6.40
2022-10-12T21:51:50.392Z,4.68
2022-10-12T21:54:18.709Z,5.60
2022-10-12T21:56:47.115Z,5.18
2022-10-12T21:59:16.860Z,5.35
2022-10-12T22:01:45.225Z,5.32
2022-10-12T22:04:16.074Z,4.78
2022-10-12T22:06:44.652Z,5.55
2022-10-12T22:09:16.972Z,5.32
2022-10-12T22:11:46.641Z,6.35
2022-10-12T22:14:18.773Z,4.47
2022-10-12T22:16:47.917Z,3.60
2022-10-12T22:19:19.621Z,5.55
2022-10-12T22:21:48.986Z,4.13
2022-10-12T22:24:17.549Z,4.80
2022-10-12T22:26:46.009Z,4.63
2022-10-12T22:29:14.483Z,4.00
2022-10-12T22:31:44.655Z,3.83
2022-10-12T22:34:13.261Z,4.57
2022-10-12T22:36:43.443Z,3.63
2022-10-12T22:39:11.782Z,4.25
2022-10-12T22:41:40.116Z,3.63
2022-10-12T22:44:08.521Z,3.58
2022-10-12T22:46:36.855Z,3.97
2022-10-12T22:49:06.628Z,3.42
2022-10-12T22:51:37.362Z,3.88
2022-10-12T22:54:05.920Z,5.35
2022-10-12T22:56:34.371Z,4.30
2022-10-12T22:59:07.174Z,4.53
2022-10-12T23:01:36.764Z,4.88
2022-10-12T23:04:06.902Z,3.53
2022-10-12T23:06:35.368Z,3.80
2022-10-12T23:09:03.942Z,3.55
2022-10-12T23:11:32.958Z,4.35
2022-10-12T23:14:01.541Z,3.75
2022-10-12T23:16:32.210Z,3.25
2022-10-12T23:19:03.184Z,5.03
2022-10-12T23:21:35.437Z,4.13
2022-10-12T23:24:05.864Z,4.20
2022-10-12T23:26:35.155Z,4.80
2022-10-12T23:29:03.931Z,3.47
2022-10-12T23:31:33.589Z,3.88
2022-10-12T23:34:04.356Z,4.75
2022-10-12T23:36:34.506Z,5.28
2022-10-12T23:39:06.208Z,4.03
2022-10-12T23:41:34.959Z,4.45
2022-10-12T23:44:03.325Z,4.80
2022-10-12T23:46:31.748Z,4.05
2022-10-12T23:49:00.134Z,3.90
2022-10-12T23:51:28.634Z,4.22
2022-10-12T23:53:58.423Z,5.07
2022-10-12T23:56:26.796Z,5.53
2022-10-12T23:58:55.327Z,5.68
